Time;durP1;ratioP1;P1;durP2;ratioP2;P2;SDS_P1;SDS_P2;PMS_P1;PMS_P2;Temp;Humidity;BMP_temperature;BMP_pressure;BME280_temperature;BME280_humidity;BME280_pressure;Samples;Min_cycle;Max_cycle;Signal;HPM_P1;HPM_P2
2023/06/16 00:01:02;;;;;;;8.53;7.57;;;19.70;99.90;;;;;;5071753;28;20466;-76
2023/06/16 00:03:33;;;;;;;8.63;7.83;;;19.70;99.90;;;;;;5074922;28;20557;-77
2023/06/16 00:06:03;;;;;;;8.90;7.87;;;19.70;99.90;;;;;;5075608;28;20486;-76
2023/06/16 00:08:33;;;;;;;10.27;9.37;;;19.70;99.90;;;;;;5064843;28;20471;-76
2023/06/16 00:11:00;;;;;;;8.97;8.17;;;19.70;99.90;;;;;;5044975;28;20494;-76
2023/06/16 00:13:27;;;;;;;8.27;7.60;;;19.70;99.90;;;;;;5058498;28;20470;-76
2023/06/16 00:15:54;;;;;;;8.27;7.60;;;19.70;99.90;;;;;;5072997;28;20477;-76
2023/06/16 00:18:23;;;;;;;9.17;8.37;;;19.60;99.90;;;;;;5076134;28;20804;-76
2023/06/16 00:20:52;;;;;;;7.50;6.90;;;19.60;99.90;;;;;;5075342;28;20503;-77
2023/06/16 00:23:24;;;;;;;7.30;6.70;;;19.60;99.90;;;;;;5067092;28;21013;-76
2023/06/16 00:25:52;;;;;;;9.23;8.07;;;19.60;99.90;;;;;;5073237;28;20590;-76
2023/06/16 00:28:20;;;;;;;8.53;7.73;;;19.60;99.90;;;;;;5071971;28;20473;-78
2023/06/16 00:30:47;;;;;;;7.63;7.03;;;19.60;99.90;;;;;;5073678;28;20474;-78
2023/06/16 00:33:15;;;;;;;8.10;7.50;;;19.60;99.90;;;;;;5069642;28;20477;-78
2023/06/16 00:35:43;;;;;;;8.33;7.63;;;19.60;99.90;;;;;;5073664;28;20466;-77
2023/06/16 00:38:10;;;;;;;8.77;7.90;;;19.60;99.90;;;;;;5074597;28;20482;-78
2023/06/16 00:40:38;;;;;;;9.53;7.90;;;19.50;99.90;;;;;;5075841;28;20569;-77
2023/06/16 00:43:06;;;;;;;9.07;8.17;;;19.50;99.90;;;;;;5074667;28;20502;-77
2023/06/16 00:45:34;;;;;;;8.33;7.63;;;19.50;99.90;;;;;;5060294;28;20475;-77
2023/06/16 00:48:02;;;;;;;8.47;7.23;;;19.50;99.90;;;;;;5061011;28;20498;-77
2023/06/16 00:50:29;;;;;;;8.60;7.90;;;19.40;99.90;;;;;;5071888;28;20527;-77
2023/06/16 00:52:56;;;;;;;9.90;8.93;;;19.40;99.90;;;;;;5073547;28;20466;-76
2023/06/16 00:55:24;;;;;;;7.87;7.17;;;19.40;99.90;;;;;;5075374;28;20474;-75
2023/06/16 00:57:54;;;;;;;8.80;8.20;;;19.40;99.90;;;;;;5075171;28;20470;-76
2023/06/16 01:00:27;;;;;;;6.93;6.43;;;19.30;99.90;;;;;;5075324;28;20454;-75
2023/06/16 01:02:55;;;;;;;8.60;7.10;;;19.30;99.90;;;;;;5065006;28;20532;-76
2023/06/16 01:05:24;;;;;;;8.67;7.87;;;19.30;99.90;;;;;;5055119;28;20499;-76
2023/06/16 01:08:02;;;;;;;8.07;7.40;;;19.20;99.90;;;;;;5055065;28;20977;-76
2023/06/16 01:10:37;;;;;;;8.30;7.50;;;19.20;99.90;;;;;;5055477;28;20467;-76
2023/06/16 01:13:14;;;;;;;9.50;8.63;;;19.20;99.90;;;;;;5054559;28;21141;-76
2023/06/16 01:15:45;;;;;;;9.20;8.27;;;19.20;99.90;;;;;;5054948;28;20479;-78
2023/06/16 01:18:15;;;;;;;11.23;9.70;;;19.20;99.90;;;;;;5060934;28;20457;-76
2023/06/16 01:20:51;;;;;;;8.33;7.57;;;19.20;99.90;;;;;;5071632;28;20522;-77
2023/06/16 01:23:28;;;;;;;8.57;7.77;;;19.10;99.90;;;;;;5069766;28;20470;-77
2023/06/16 01:26:01;;;;;;;7.07;6.53;;;19.10;99.90;;;;;;5071637;28;20479;-78
2023/06/16 01:28:33;;;;;;;7.67;6.87;;;19.10;99.90;;;;;;5073655;28;20518;-77
2023/06/16 01:31:01;;;;;;;7.87;7.17;;;19.10;99.90;;;;;;5074362;28;20474;-77
2023/06/16 01:33:32;;;;;;;6.73;6.23;;;19.00;99.90;;;;;;5075077;28;20497;-77
2023/06/16 01:36:00;;;;;;;7.40;6.70;;;19.00;99.90;;;;;;5070585;28;20470;-77
2023/06/16 01:38:28;;;;;;;6.80;6.20;;;19.00;99.90;;;;;;5072716;28;20952;-77
2023/06/16 01:40:58;;;;;;;7.23;6.63;;;19.00;99.90;;;;;;5074172;28;20474;-77
2023/06/16 01:43:25;;;;;;;6.63;5.90;;;19.00;99.90;;;;;;5073995;28;20793;-77
2023/06/16 01:45:53;;;;;;;6.57;6.00;;;19.00;99.90;;;;;;5069480;28;20529;-77
2023/06/16 01:48:21;;;;;;;7.10;6.40;;;19.00;99.90;;;;;;5073629;28;21030;-77
2023/06/16 01:50:51;;;;;;;8.47;7.63;;;19.00;99.90;;;;;;5064232;28;20455;-77
2023/06/16 01:53:19;;;;;;;8.13;7.40;;;18.90;99.90;;;;;;5073799;28;20458;-77
2023/06/16 01:55:49;;;;;;;8.10;7.40;;;18.90;99.90;;;;;;5074189;28;20477;-77
2023/06/16 01:58:18;;;;;;;8.73;7.87;;;18.90;99.90;;;;;;5074136;28;20469;-76
2023/06/16 02:00:51;;;;;;;10.50;9.50;;;18.90;99.90;;;;;;5072773;28;20470;-77
2023/06/16 02:03:24;;;;;;;12.00;8.90;;;18.90;99.90;;;;;;5056945;28;20554;-77
2023/06/16 02:05:54;;;;;;;10.07;9.07;;;18.90;99.90;;;;;;5052784;28;20875;-77
2023/06/16 02:08:24;;;;;;;10.37;9.30;;;18.90;99.90;;;;;;5052731;28;20995;-77
2023/06/16 02:10:52;;;;;;;11.93;10.57;;;18.90;99.90;;;;;;5052901;28;20475;-77
2023/06/16 02:13:21;;;;;;;8.93;8.03;;;18.80;99.90;;;;;;5052397;28;20521;-77
2023/06/16 02:15:53;;;;;;;9.90;8.90;;;18.80;99.90;;;;;;5052687;28;20479;-77
2023/06/16 02:18:27;;;;;;;9.20;8.33;;;18.90;99.90;;;;;;5053247;28;20714;-76
2023/06/16 02:20:56;;;;;;;8.60;7.57;;;18.80;99.90;;;;;;5054287;28;20551;-76
2023/06/16 02:23:24;;;;;;;9.50;7.97;;;18.80;99.90;;;;;;5053137;28;20459;-76
2023/06/16 02:25:51;;;;;;;8.63;7.93;;;18.80;99.90;;;;;;5054701;28;20475;-76
2023/06/16 02:28:19;;;;;;;10.60;9.60;;;18.80;99.90;;;;;;5054951;28;20541;-77
2023/06/16 02:30:47;;;;;;;11.00;8.93;;;18.80;99.90;;;;;;5055245;28;20471;-77
2023/06/16 02:33:16;;;;;;;11.63;9.03;;;18.80;99.90;;;;;;5054709;28;20463;-76
2023/06/16 02:35:43;;;;;;;11.13;10.13;;;18.80;99.90;;;;;;5055459;28;20475;-76
2023/06/16 02:38:10;;;;;;;10.17;9.17;;;18.90;99.90;;;;;;5055006;28;20468;-76
2023/06/16 02:40:38;;;;;;;9.70;8.70;;;18.80;99.90;;;;;;5056891;28;21051;-76
2023/06/16 02:43:05;;;;;;;9.30;7.80;;;18.80;99.90;;;;;;5056549;28;20858;-77
2023/06/16 02:45:33;;;;;;;12.63;8.40;;;18.90;99.90;;;;;;5056796;28;20463;-77
2023/06/16 02:48:00;;;;;;;12.63;9.10;;;18.90;99.90;;;;;;5046248;28;20476;-77
2023/06/16 02:50:28;;;;;;;9.03;8.10;;;18.90;99.90;;;;;;5054740;28;20529;-77
2023/06/16 02:52:57;;;;;;;9.30;8.07;;;18.80;99.90;;;;;;5055429;28;20467;-77
2023/06/16 02:55:24;;;;;;;7.13;6.47;;;18.80;99.90;;;;;;5054429;28;20805;-77
2023/06/16 02:57:51;;;;;;;7.37;6.73;;;18.80;99.90;;;;;;5055014;28;20533;-77
2023/06/16 03:00:19;;;;;;;7.77;7.07;;;18.90;99.90;;;;;;5053999;28;20557;-77
2023/06/16 03:02:48;;;;;;;8.23;7.63;;;18.80;99.90;;;;;;5046153;28;20471;-76
2023/06/16 03:05:33;;;;;;;6.37;5.87;;;18.80;99.90;;;;;;5054843;28;20491;-77
2023/06/16 03:08:01;;;;;;;8.63;7.87;;;18.80;99.90;;;;;;5046362;28;20956;-76
2023/06/16 03:10:28;;;;;;;8.70;8.00;;;18.80;99.90;;;;;;5054539;28;20467;-76
2023/06/16 03:12:55;;;;;;;7.93;7.27;;;18.80;99.90;;;;;;5055561;28;20476;-76
2023/06/16 03:15:25;;;;;;;8.67;7.77;;;18.80;99.90;;;;;;5057426;28;20561;-76
2023/06/16 03:17:54;;;;;;;9.60;8.67;;;18.90;99.90;;;;;;5058489;28;20475;-76
2023/06/16 03:20:22;;;;;;;8.30;7.63;;;18.80;99.90;;;;;;5056955;28;20525;-76
2023/06/16 03:22:49;;;;;;;7.73;7.10;;;18.80;99.90;;;;;;5057581;28;20472;-77
2023/06/16 03:25:16;;;;;;;8.63;7.97;;;18.80;99.90;;;;;;5056942;28;20493;-76
2023/06/16 03:27:44;;;;;;;8.43;7.73;;;18.80;99.90;;;;;;5057739;28;20940;-76
2023/06/16 03:30:11;;;;;;;8.67;8.07;;;18.80;99.90;;;;;;5057428;28;20502;-77
2023/06/16 03:32:38;;;;;;;9.83;9.00;;;18.80;99.90;;;;;;5059421;28;20782;-76
2023/06/16 03:35:08;;;;;;;10.80;8.50;;;18.80;99.90;;;;;;5061867;28;20467;-77
2023/06/16 03:37:36;;;;;;;11.13;8.27;;;18.80;99.90;;;;;;5060195;28;20462;-76
2023/06/16 03:40:05;;;;;;;9.53;8.63;;;18.80;99.90;;;;;;5058266;28;20510;-76
2023/06/16 03:42:51;;;;;;;8.70;7.93;;;18.80;99.90;;;;;;5049465;28;20501;-76
2023/06/16 03:45:33;;;;;;;9.13;8.37;;;18.70;99.90;;;;;;5061418;28;20477;-77
2023/06/16 03:48:07;;;;;;;10.27;9.47;;;18.70;99.90;;;;;;5061202;28;20463;-77
2023/06/16 03:50:47;;;;;;;10.33;9.37;;;18.70;99.90;;;;;;5062248;28;20466;-76
2023/06/16 03:53:14;;;;;;;9.03;8.30;;;18.70;99.90;;;;;;5050399;28;20473;-76
2023/06/16 03:55:41;;;;;;;9.97;9.17;;;18.70;99.90;;;;;;5066425;28;20463;-76
2023/06/16 03:58:08;;;;;;;9.73;8.90;;;18.70;99.90;;;;;;5064700;28;20467;-77
2023/06/16 04:00:35;;;;;;;8.20;7.50;;;18.70;99.90;;;;;;5065299;28;20459;-76
2023/06/16 04:03:02;;;;;;;10.30;8.47;;;18.70;99.90;;;;;;5065221;28;20487;-77
2023/06/16 04:05:29;;;;;;;9.60;8.70;;;18.80;99.90;;;;;;5063163;28;20459;-77
2023/06/16 04:07:58;;;;;;;8.97;8.27;;;18.70;99.90;;;;;;5066255;28;20523;-77
2023/06/16 04:10:25;;;;;;;9.07;8.27;;;18.70;99.90;;;;;;5065797;28;20491;-77
2023/06/16 04:12:52;;;;;;;10.40;8.07;;;18.80;99.90;;;;;;5064248;28;20463;-77
2023/06/16 04:15:20;;;;;;;9.43;8.63;;;18.80;99.90;;;;;;5065066;28;20464;-76
2023/06/16 04:17:47;;;;;;;9.00;8.30;;;18.70;99.90;;;;;;5069850;28;20455;-76
2023/06/16 04:20:14;;;;;;;9.07;8.37;;;18.70;99.90;;;;;;5066605;28;20844;-77
2023/06/16 04:22:42;;;;;;;9.87;9.07;;;18.70;99.90;;;;;;5060568;28;20577;-76
2023/06/16 04:25:11;;;;;;;9.40;8.53;;;18.70;99.90;;;;;;5063991;28;20474;-77
2023/06/16 04:27:38;;;;;;;9.60;8.17;;;18.70;99.90;;;;;;5061302;28;20475;-76
2023/06/16 04:30:06;;;;;;;10.57;9.67;;;18.70;99.90;;;;;;5057435;28;20493;-76
2023/06/16 04:32:35;;;;;;;9.43;8.63;;;18.70;99.90;;;;;;5063109;28;20467;-75
2023/06/16 04:35:04;;;;;;;8.73;7.93;;;18.70;99.90;;;;;;5067872;28;20473;-77
2023/06/16 04:37:31;;;;;;;8.60;7.70;;;18.70;99.90;;;;;;5068094;28;20486;-78
2023/06/16 04:39:58;;;;;;;8.83;7.97;;;18.70;99.90;;;;;;5066624;28;20467;-78
2023/06/16 04:42:28;;;;;;;7.67;6.97;;;18.70;99.90;;;;;;5068607;28;20467;-76
2023/06/16 04:44:55;;;;;;;8.37;7.67;;;18.70;99.90;;;;;;5067663;28;20526;-76
2023/06/16 04:47:22;;;;;;;9.17;8.33;;;18.70;99.90;;;;;;5069323;28;20501;-76
2023/06/16 04:49:49;;;;;;;8.03;7.43;;;18.70;99.90;;;;;;5072166;28;20470;-76
2023/06/16 04:52:16;;;;;;;8.57;7.87;;;18.70;99.90;;;;;;5072523;28;20561;-78
2023/06/16 04:54:43;;;;;;;8.60;7.40;;;18.70;99.90;;;;;;5072240;28;20468;-77
2023/06/16 04:57:10;;;;;;;9.63;8.23;;;18.70;99.90;;;;;;5071323;28;20463;-77
2023/06/16 04:59:39;;;;;;;8.30;7.57;;;18.70;99.90;;;;;;5070363;28;20458;-77
2023/06/16 05:02:07;;;;;;;9.20;8.30;;;18.70;99.90;;;;;;5072539;28;20972;-77
2023/06/16 05:04:34;;;;;;;8.67;7.97;;;18.70;99.90;;;;;;5063203;28;20455;-78
2023/06/16 05:07:01;;;;;;;8.60;7.80;;;18.70;99.90;;;;;;5070700;28;20501;-77
2023/06/16 05:09:32;;;;;;;7.93;7.23;;;18.80;99.90;;;;;;5069166;28;20467;-77
2023/06/16 05:11:59;;;;;;;8.47;7.70;;;18.80;99.90;;;;;;5069993;28;20463;-78
2023/06/16 05:14:26;;;;;;;7.90;7.30;;;18.80;99.90;;;;;;5069798;28;20464;-78
2023/06/16 05:16:55;;;;;;;8.93;8.07;;;18.80;99.90;;;;;;5069132;28;20467;-77
2023/06/16 05:19:22;;;;;;;9.60;8.73;;;18.80;99.90;;;;;;5058262;28;20471;-77
2023/06/16 05:21:49;;;;;;;10.43;8.90;;;18.80;99.90;;;;;;5072975;28;20452;-77
2023/06/16 05:24:16;;;;;;;9.47;8.67;;;18.80;99.90;;;;;;5061789;28;20483;-77
2023/06/16 05:26:43;;;;;;;10.03;9.23;;;18.80;99.90;;;;;;5061908;28;20482;-77
2023/06/16 05:29:10;;;;;;;9.10;8.30;;;18.80;99.90;;;;;;5071978;28;20490;-77
2023/06/16 05:31:38;;;;;;;7.93;7.23;;;18.90;99.90;;;;;;5072577;28;20471;-77
2023/06/16 05:34:09;;;;;;;9.50;8.67;;;18.90;99.90;;;;;;5065969;28;20463;-77
2023/06/16 05:36:53;;;;;;;9.07;8.17;;;18.80;99.90;;;;;;5051911;28;20491;-78
2023/06/16 05:39:20;;;;;;;10.53;8.30;;;18.90;99.90;;;;;;5061790;28;20481;-77
2023/06/16 05:41:47;;;;;;;7.97;7.37;;;18.90;99.90;;;;;;5061314;28;20505;-77
2023/06/16 05:44:14;;;;;;;9.03;8.00;;;18.80;99.90;;;;;;5058704;28;20498;-77
2023/06/16 05:46:41;;;;;;;9.40;8.60;;;18.90;99.90;;;;;;5056711;28;20475;-76
2023/06/16 05:49:12;;;;;;;8.30;7.60;;;18.90;99.90;;;;;;5055241;28;21022;-77
2023/06/16 05:51:41;;;;;;;8.37;7.77;;;18.80;99.90;;;;;;5055451;28;20471;-77
2023/06/16 05:54:08;;;;;;;7.67;7.07;;;18.90;99.90;;;;;;5056332;28;20467;-77
2023/06/16 05:56:35;;;;;;;8.43;7.73;;;18.90;99.90;;;;;;5054645;28;20475;-76
2023/06/16 05:59:05;;;;;;;8.47;7.77;;;18.90;99.90;;;;;;5054737;28;20474;-76
2023/06/16 06:01:32;;;;;;;8.03;7.37;;;18.90;99.90;;;;;;5054375;28;20475;-77
2023/06/16 06:03:59;;;;;;;6.93;6.37;;;19.00;99.90;;;;;;5057100;28;20452;-76
2023/06/16 06:06:28;;;;;;;7.40;6.70;;;19.00;99.90;;;;;;5061495;28;20810;-76
2023/06/16 06:08:55;;;;;;;8.30;7.40;;;19.00;99.90;;;;;;5059093;28;20992;-77
2023/06/16 06:11:22;;;;;;;9.80;8.03;;;19.00;99.90;;;;;;5062192;28;20470;-77
2023/06/16 06:13:52;;;;;;;7.70;6.83;;;19.00;99.90;;;;;;5062360;28;20539;-77
2023/06/16 06:16:19;;;;;;;6.37;5.90;;;19.00;99.90;;;;;;5065231;28;20474;-75
2023/06/16 06:18:47;;;;;;;6.90;6.40;;;19.00;99.90;;;;;;5064243;28;20467;-78
2023/06/16 06:21:14;;;;;;;8.23;7.53;;;19.00;99.90;;;;;;5064895;28;20490;-77
2023/06/16 06:23:42;;;;;;;6.97;6.40;;;19.00;99.90;;;;;;5063839;28;20525;-76
2023/06/16 06:26:10;;;;;;;7.10;6.60;;;18.90;99.90;;;;;;5062738;28;20475;-77
2023/06/16 06:28:37;;;;;;;10.00;9.00;;;18.90;99.90;;;;;;5063356;28;20464;-76
2023/06/16 06:31:04;;;;;;;9.70;8.80;;;18.90;99.90;;;;;;5061727;28;20474;-77
2023/06/16 06:33:31;;;;;;;9.07;8.30;;;18.90;99.90;;;;;;5063947;28;20471;-77
2023/06/16 06:36:00;;;;;;;9.87;8.90;;;18.90;99.90;;;;;;5061685;28;20482;-77
2023/06/16 06:38:29;;;;;;;8.77;8.07;;;18.90;99.90;;;;;;5063705;28;20486;-77
2023/06/16 06:40:58;;;;;;;10.83;9.83;;;18.90;99.90;;;;;;5062157;28;20463;-77
2023/06/16 06:43:26;;;;;;;9.57;8.73;;;18.80;99.90;;;;;;5062604;28;20486;-77
2023/06/16 06:45:53;;;;;;;10.77;9.67;;;18.80;99.90;;;;;;5059954;28;20546;-77
2023/06/16 06:48:20;;;;;;;7.97;7.37;;;18.80;99.90;;;;;;5059476;28;20463;-77
2023/06/16 06:50:49;;;;;;;8.43;7.63;;;18.80;99.90;;;;;;5069646;28;20474;-77
2023/06/16 06:53:16;;;;;;;9.97;8.97;;;18.80;99.90;;;;;;5080642;28;20781;-77
2023/06/16 06:55:43;;;;;;;9.10;8.30;;;18.90;99.90;;;;;;5058622;28;20537;-78
2023/06/16 06:58:14;;;;;;;8.07;7.33;;;18.90;99.90;;;;;;5060358;28;20467;-79
2023/06/16 07:00:44;;;;;;;8.77;7.87;;;18.90;99.90;;;;;;5066811;28;20541;-78
2023/06/16 07:03:13;;;;;;;8.73;7.70;;;18.80;99.90;;;;;;5078642;28;20493;-78
2023/06/16 07:05:40;;;;;;;8.57;6.30;;;18.80;99.90;;;;;;5080296;28;20478;-78
2023/06/16 07:08:07;;;;;;;7.67;7.13;;;18.80;99.90;;;;;;5080992;28;20531;-78
2023/06/16 07:10:36;;;;;;;7.97;7.37;;;18.80;99.90;;;;;;5077208;28;20470;-77
2023/06/16 07:13:06;;;;;;;7.10;6.40;;;18.80;99.90;;;;;;5078724;28;20470;-78
2023/06/16 07:15:34;;;;;;;7.07;6.57;;;18.70;99.90;;;;;;5080658;28;20473;-79
2023/06/16 07:18:02;;;;;;;8.87;8.17;;;18.70;99.90;;;;;;5080742;28;20475;-77
2023/06/16 07:20:29;;;;;;;9.37;8.67;;;18.70;99.90;;;;;;5080030;28;20462;-76
2023/06/16 07:22:56;;;;;;;9.00;8.30;;;18.80;99.90;;;;;;5078753;28;20466;-78
2023/06/16 07:25:23;;;;;;;9.40;8.60;;;18.70;99.90;;;;;;5079775;28;20469;-78
2023/06/16 07:27:51;;;;;;;9.80;9.00;;;18.70;99.90;;;;;;5079458;28;20466;-79
2023/06/16 07:30:19;;;;;;;10.43;9.33;;;18.70;99.90;;;;;;5081996;28;20527;-78
2023/06/16 07:32:49;;;;;;;8.93;8.20;;;18.80;99.90;;;;;;5083783;28;20489;-78
2023/06/16 07:35:20;;;;;;;10.10;9.23;;;18.80;99.90;;;;;;5082065;28;20525;-77
2023/06/16 07:37:47;;;;;;;8.93;8.13;;;18.80;99.90;;;;;;5081927;28;20494;-79
2023/06/16 07:40:15;;;;;;;9.17;8.37;;;18.80;99.90;;;;;;5079924;28;20454;-79
2023/06/16 07:42:44;;;;;;;9.97;8.97;;;18.90;99.90;;;;;;5079573;28;20462;-78
2023/06/16 07:45:11;;;;;;;9.40;8.60;;;18.90;99.90;;;;;;5077797;28;20531;-79
2023/06/16 07:47:39;;;;;;;11.00;9.67;;;18.90;99.90;;;;;;5081896;28;20549;-80
2023/06/16 07:50:10;;;;;;;11.33;10.27;;;19.00;99.90;;;;;;5077221;28;20481;-78
2023/06/16 07:52:38;;;;;;;11.37;10.27;;;19.00;99.90;;;;;;5078361;28;20486;-79
2023/06/16 07:55:06;;;;;;;8.93;8.17;;;19.20;99.90;;;;;;5078648;28;20482;-79
2023/06/16 07:57:33;;;;;;;11.17;10.00;;;19.20;99.90;;;;;;5078100;28;20477;-79
2023/06/16 08:00:00;;;;;;;11.50;10.40;;;19.30;99.90;;;;;;5077475;28;20470;-78
2023/06/16 08:02:28;;;;;;;10.87;9.87;;;19.50;99.90;;;;;;5074799;28;20785;-78
2023/06/16 08:04:55;;;;;;;11.73;10.63;;;19.50;99.90;;;;;;5061841;28;20475;-77
2023/06/16 08:07:24;;;;;;;9.97;9.13;;;19.70;99.90;;;;;;5074253;28;20470;-79
2023/06/16 08:09:51;;;;;;;9.50;8.60;;;19.80;99.90;;;;;;5074307;28;20872;-79
2023/06/16 08:12:18;;;;;;;11.20;10.30;;;20.00;99.90;;;;;;5071618;28;20482;-78
2023/06/16 08:14:45;;;;;;;9.17;8.37;;;20.20;99.90;;;;;;5073661;28;20463;-80
2023/06/16 08:17:16;;;;;;;9.90;9.00;;;20.40;99.90;;;;;;5071867;28;20466;-78
2023/06/16 08:19:43;;;;;;;10.37;9.47;;;20.50;99.90;;;;;;5074087;28;20466;-78
2023/06/16 08:22:11;;;;;;;8.37;7.67;;;20.60;99.90;;;;;;5074125;28;20795;-79
2023/06/16 08:24:39;;;;;;;8.40;7.53;;;20.60;99.90;;;;;;5077208;28;20474;-77
2023/06/16 08:27:08;;;;;;;9.97;9.07;;;20.60;99.90;;;;;;5077364;28;20458;-79
2023/06/16 08:29:36;;;;;;;9.90;9.10;;;20.60;99.90;;;;;;5075794;28;20465;-78
2023/06/16 08:32:03;;;;;;;9.23;7.33;;;20.50;99.90;;;;;;5076445;28;20470;-78
2023/06/16 08:34:30;;;;;;;10.20;9.37;;;20.50;99.90;;;;;;5076029;28;20470;-78
2023/06/16 08:36:58;;;;;;;8.47;7.77;;;20.40;99.90;;;;;;5077702;28;20960;-78
2023/06/16 08:39:25;;;;;;;9.77;8.60;;;20.30;99.90;;;;;;5076690;28;20494;-78
2023/06/16 08:41:55;;;;;;;7.83;7.13;;;20.10;99.90;;;;;;5077678;28;20540;-79
2023/06/16 08:44:22;;;;;;;8.20;6.50;;;20.10;99.90;;;;;;5077067;28;21021;-80
2023/06/16 08:46:50;;;;;;;6.57;6.07;;;19.90;99.90;;;;;;5077177;28;20466;-80
2023/06/16 08:49:18;;;;;;;6.50;6.00;;;19.80;99.90;;;;;;5077126;28;20553;-80
2023/06/16 08:51:49;;;;;;;7.17;6.53;;;19.70;99.90;;;;;;5076811;28;21015;-80
2023/06/16 08:54:18;;;;;;;6.40;5.80;;;19.60;99.90;;;;;;5076237;28;20983;-79
2023/06/16 08:56:47;;;;;;;9.77;6.40;;;19.50;99.90;;;;;;5076616;28;20528;-80
2023/06/16 08:59:17;;;;;;;7.13;6.43;;;19.50;99.90;;;;;;5076036;28;20526;-79
2023/06/16 09:01:44;;;;;;;10.20;5.97;;;19.40;99.90;;;;;;5077245;28;20804;-80
2023/06/16 09:04:13;;;;;;;12.00;6.37;;;19.40;99.90;;;;;;5076498;28;20967;-78
2023/06/16 09:06:47;;;;;;;9.03;5.30;;;19.40;99.90;;;;;;5075485;28;20455;-78
2023/06/16 09:09:18;;;;;;;5.67;5.17;;;19.40;99.90;;;;;;5076469;28;20549;-78
2023/06/16 09:11:45;;;;;;;5.70;5.10;;;19.40;99.90;;;;;;5077007;28;20520;-78
2023/06/16 09:14:17;;;;;;;6.20;4.67;;;19.40;99.90;;;;;;5076175;28;20494;-78
2023/06/16 09:16:56;;;;;;;5.40;5.00;;;19.50;99.90;;;;;;5067045;28;20800;-77
2023/06/16 09:19:23;;;;;;;5.33;4.93;;;19.50;99.90;;;;;;5075493;28;20458;-79
2023/06/16 09:22:28;;;;;;;5.13;4.73;;;19.60;99.90;;;;;;5076637;28;20472;-79
2023/06/16 09:24:55;;;;;;;7.77;5.40;;;19.60;99.90;;;;;;5073515;28;20541;-79
2023/06/16 09:27:23;;;;;;;7.20;5.77;;;19.60;99.90;;;;;;5075537;28;20756;-80
2023/06/16 09:29:57;;;;;;;6.93;6.27;;;19.60;99.90;;;;;;5076495;28;20473;-80
2023/06/16 09:32:25;;;;;;;7.50;6.00;;;19.70;99.90;;;;;;5075272;28;20476;-79
2023/06/16 09:34:52;;;;;;;7.03;5.10;;;19.70;99.90;;;;;;5074735;28;20892;-78
2023/06/16 09:37:20;;;;;;;5.30;4.83;;;19.70;99.90;;;;;;5075338;28;20535;-78
2023/06/16 09:39:47;;;;;;;6.00;5.40;;;19.80;99.90;;;;;;5076056;28;20466;-81
2023/06/16 09:42:16;;;;;;;5.53;5.03;;;19.80;99.90;;;;;;5075040;28;20482;-80
2023/06/16 09:44:43;;;;;;;6.07;5.40;;;19.90;99.90;;;;;;5075695;28;20808;-80
2023/06/16 09:47:15;;;;;;;5.27;4.93;;;19.90;99.90;;;;;;5075123;28;20807;-80
2023/06/16 09:49:42;;;;;;;5.90;5.30;;;20.00;99.90;;;;;;5075623;28;20796;-80
2023/06/16 09:52:09;;;;;;;5.53;5.03;;;20.10;99.90;;;;;;5074219;28;20466;-79
2023/06/16 09:57:12;;;;;;;5.20;4.80;;;20.20;99.90;;;;;;5023658;23;20538;-78
2023/06/16 09:59:40;;;;;;;5.43;5.03;;;20.30;99.90;;;;;;4995234;28;20474;-78
2023/06/16 10:02:07;;;;;;;5.20;4.80;;;20.40;99.90;;;;;;4995628;28;20480;-78
2023/06/16 10:04:36;;;;;;;4.70;4.30;;;20.50;99.90;;;;;;4994285;28;20470;-78
2023/06/16 10:07:08;;;;;;;5.87;5.33;;;20.50;99.90;;;;;;4995413;28;21043;-78
2023/06/16 10:09:41;;;;;;;6.23;5.73;;;20.50;99.90;;;;;;4985157;28;20507;-78
2023/06/16 10:12:11;;;;;;;6.67;5.97;;;20.60;99.90;;;;;;4995282;28;20556;-77
2023/06/16 10:14:40;;;;;;;6.00;5.40;;;20.70;99.90;;;;;;4995600;28;20469;-78
2023/06/16 10:17:10;;;;;;;8.63;6.30;;;20.80;99.90;;;;;;4997765;28;20476;-77
2023/06/16 10:19:40;;;;;;;7.20;6.50;;;20.80;99.90;;;;;;4995395;28;20507;-77
2023/06/16 10:22:08;;;;;;;6.60;6.03;;;20.80;99.90;;;;;;4994344;28;21005;-78
2023/06/16 10:24:39;;;;;;;7.43;6.00;;;20.80;99.90;;;;;;4994990;28;20553;-79
2023/06/16 10:27:07;;;;;;;7.90;6.97;;;20.70;99.90;;;;;;4994909;28;20968;-78
2023/06/16 10:29:34;;;;;;;8.83;7.00;;;20.70;99.90;;;;;;4994255;28;20549;-78
2023/06/16 10:32:06;;;;;;;12.57;10.87;;;20.70;99.90;;;;;;4995033;28;20486;-79
2023/06/16 10:34:49;;;;;;;8.10;7.30;;;20.70;99.90;;;;;;4994236;28;20473;-77
2023/06/16 10:37:17;;;;;;;13.60;8.37;;;20.70;99.90;;;;;;4995809;28;20480;-78
2023/06/16 10:39:46;;;;;;;7.47;6.87;;;20.70;99.90;;;;;;4985722;28;20510;-78
2023/06/16 10:42:14;;;;;;;9.33;8.43;;;20.70;99.90;;;;;;4995591;28;20470;-79
2023/06/16 10:44:46;;;;;;;7.70;6.53;;;20.70;99.90;;;;;;4994472;28;20577;-79
2023/06/16 10:47:37;;;;;;;6.80;5.60;;;20.70;99.90;;;;;;4984865;28;20975;-77
2023/06/16 10:50:10;;;;;;;8.40;6.30;;;20.60;99.90;;;;;;4993465;28;20537;-78
2023/06/16 10:52:56;;;;;;;6.03;5.43;;;20.60;99.90;;;;;;4990366;28;20469;-78
2023/06/16 10:55:33;;;;;;;8.37;5.90;;;20.60;99.90;;;;;;4996701;28;20462;-79
2023/06/16 10:58:27;;;;;;;5.70;5.30;;;20.70;99.90;;;;;;5017325;28;20981;-79
2023/06/16 11:00:59;;;;;;;5.43;4.93;;;20.70;99.90;;;;;;5017833;28;20465;-78
2023/06/16 11:03:30;;;;;;;7.33;6.20;;;20.80;99.90;;;;;;5017165;28;20636;-79
2023/06/16 11:06:03;;;;;;;6.63;5.97;;;20.80;99.90;;;;;;5005203;28;20563;-77
2023/06/16 11:08:31;;;;;;;8.63;6.77;;;20.90;99.90;;;;;;5015846;28;20548;-77
2023/06/16 11:11:06;;;;;;;7.77;6.97;;;20.90;99.90;;;;;;5015468;28;20497;-79
2023/06/16 11:13:39;;;;;;;8.67;6.27;;;20.90;99.90;;;;;;5005965;28;20535;-79
2023/06/16 11:16:08;;;;;;;6.63;6.03;;;20.90;99.90;;;;;;5014025;28;20993;-77
2023/06/16 11:18:38;;;;;;;5.80;5.40;;;20.90;99.90;;;;;;5003996;28;20525;-76
2023/06/16 11:21:08;;;;;;;7.00;5.23;;;20.90;99.90;;;;;;5013272;28;20472;-77
2023/06/16 11:23:36;;;;;;;11.13;5.80;;;20.90;99.90;;;;;;5005796;28;20485;-78
2023/06/16 11:26:08;;;;;;;6.40;5.80;;;21.00;99.90;;;;;;5013685;28;20818;-79
2023/06/16 11:28:37;;;;;;;6.00;5.50;;;21.10;99.90;;;;;;5014185;28;20808;-78
2023/06/16 11:31:30;;;;;;;6.57;5.83;;;21.10;99.90;;;;;;5014716;28;20473;-78
2023/06/16 11:34:01;;;;;;;5.50;5.00;;;21.20;99.90;;;;;;5014049;28;20963;-79
2023/06/16 11:36:30;;;;;;;7.77;5.70;;;21.30;99.90;;;;;;5013794;28;21074;-78
2023/06/16 11:39:00;;;;;;;7.73;6.03;;;21.40;99.90;;;;;;5010976;28;20473;-78
2023/06/16 11:41:29;;;;;;;9.20;6.50;;;21.50;99.90;;;;;;5013988;28;20465;-78
2023/06/16 11:43:57;;;;;;;6.40;5.90;;;21.40;99.90;;;;;;5013469;28;20469;-79
2023/06/16 11:46:26;;;;;;;6.73;6.07;;;21.50;99.90;;;;;;4993296;28;20484;-78
2023/06/16 11:48:54;;;;;;;13.27;8.67;;;21.40;99.90;;;;;;5004165;28;20473;-78
2023/06/16 11:51:23;;;;;;;9.40;8.40;;;21.40;99.90;;;;;;5014999;28;20469;-79
2023/06/16 11:53:52;;;;;;;10.77;7.20;;;21.40;99.90;;;;;;5004934;28;20479;-79
2023/06/16 11:56:19;;;;;;;7.70;6.73;;;21.30;99.90;;;;;;5014428;28;20465;-78
2023/06/16 11:58:48;;;;;;;7.90;7.20;;;21.10;99.90;;;;;;5018476;28;20846;-78
2023/06/16 12:01:17;;;;;;;7.53;6.80;;;21.00;99.90;;;;;;5018079;28;20460;-79
2023/06/16 12:03:47;;;;;;;8.07;7.37;;;20.90;99.90;;;;;;5018207;28;20461;-78
2023/06/16 12:06:15;;;;;;;10.23;7.47;;;20.90;99.90;;;;;;5017804;28;20472;-79
2023/06/16 12:08:44;;;;;;;8.37;7.67;;;20.80;99.90;;;;;;5018891;28;20527;-78
2023/06/16 12:11:15;;;;;;;8.20;5.87;;;20.80;99.90;;;;;;5017135;28;20477;-79
2023/06/16 12:13:42;;;;;;;8.40;6.43;;;20.80;99.90;;;;;;5017782;28;20806;-80
2023/06/16 12:16:14;;;;;;;8.47;7.63;;;20.80;99.90;;;;;;5017174;28;20513;-77
2023/06/16 12:18:41;;;;;;;10.60;9.40;;;20.90;99.90;;;;;;5017324;28;20472;-77
2023/06/16 12:21:19;;;;;;;9.60;8.80;;;20.80;99.90;;;;;;5017286;28;20527;-78
2023/06/16 12:23:53;;;;;;;7.60;6.97;;;20.80;99.90;;;;;;5017908;28;20469;-77
2023/06/16 12:26:33;;;;;;;6.10;5.50;;;20.70;99.90;;;;;;5017121;28;20532;-80
2023/06/16 12:29:02;;;;;;;7.47;6.77;;;20.60;99.90;;;;;;5015992;28;21033;-78
2023/06/16 12:31:29;;;;;;;7.30;6.07;;;20.70;99.90;;;;;;5016777;28;20461;-78
2023/06/16 12:33:57;;;;;;;5.23;4.73;;;20.60;99.90;;;;;;5016637;28;20468;-79
2023/06/16 12:36:27;;;;;;;6.33;5.73;;;20.60;99.90;;;;;;5017041;28;20777;-79
2023/06/16 12:38:59;;;;;;;6.30;5.53;;;20.60;99.90;;;;;;5016829;28;20488;-78
2023/06/16 12:41:29;;;;;;;5.63;5.23;;;20.60;99.90;;;;;;5001612;28;20465;-79
2023/06/16 12:43:57;;;;;;;7.90;5.60;;;20.60;99.90;;;;;;5016088;28;20509;-79
2023/06/16 12:46:24;;;;;;;6.20;5.70;;;20.60;99.90;;;;;;5016840;28;20859;-78
2023/06/16 12:48:52;;;;;;;5.73;5.00;;;20.60;99.90;;;;;;5007740;28;20477;-79
2023/06/16 12:51:21;;;;;;;6.77;6.17;;;20.50;99.90;;;;;;5016807;28;20468;-78
2023/06/16 12:53:48;;;;;;;6.63;5.93;;;20.50;99.90;;;;;;5016197;28;20465;-79
2023/06/16 12:56:15;;;;;;;5.50;5.00;;;20.40;99.90;;;;;;5016814;28;20476;-77
2023/06/16 12:58:43;;;;;;;5.60;4.97;;;20.50;99.90;;;;;;5017259;28;20468;-77